Time;durP1;ratioP1;P1;durP2;ratioP2;P2;SDS_P1;SDS_P2;PMS_P1;PMS_P2;Temp;Humidity;BMP_temperature;BMP_pressure;BME280_temperature;BME280_humidity;BME280_pressure;Samples;Min_cycle;Max_cycle;Signal;HPM_P1;HPM_P2
2021/01/31 00:00:35;;;;;;;37.15;17.12;;;;;;;-1.26;71.25;96832.22;1799728;78;21103;-74
2021/01/31 00:03:15;;;;;;;35.48;16.42;;;;;;;-1.33;71.40;96845.63;1799789;78;21490;-74
2021/01/31 00:05:43;;;;;;;36.42;16.35;;;;;;;-1.45;71.47;96844.84;1799896;79;21187;-74
2021/01/31 00:08:12;;;;;;;45.73;18.90;;;;;;;-1.62;71.32;96852.69;1799774;78;21030;-74
2021/01/31 00:10:38;;;;;;;41.60;18.40;;;;;;;-1.67;71.81;96855.21;1799881;79;21082;-74
2021/01/31 00:13:04;;;;;;;42.35;17.60;;;;;;;-1.80;71.50;96858.08;1799793;78;21101;-74
2021/01/31 00:15:34;;;;;;;38.95;17.92;;;;;;;-1.86;72.09;96851.05;1799745;79;21121;-74
2021/01/31 00:18:01;;;;;;;37.08;18.52;;;;;;;-1.86;72.11;96848.39;1790482;79;21257;-74
2021/01/31 00:20:29;;;;;;;38.67;15.50;;;;;;;-1.85;72.29;96853.47;1785243;80;21094;-74
2021/01/31 00:22:56;;;;;;;37.63;17.27;;;;;;;-1.81;72.34;96853.28;1755104;79;21047;-74
2021/01/31 00:25:22;;;;;;;40.38;18.45;;;;;;;-1.83;71.94;96855.36;1785241;80;21118;-74
2021/01/31 00:27:49;;;;;;;46.55;20.02;;;;;;;-1.85;71.87;96857.45;1785194;80;21024;-74
2021/01/31 00:30:29;;;;;;;44.88;20.25;;;;;;;-1.79;72.18;96851.75;1785150;79;21183;-74
2021/01/31 00:32:56;;;;;;;45.30;17.90;;;;;;;-1.82;72.05;96858.83;1785208;79;21055;-74
2021/01/31 00:35:24;;;;;;;44.13;20.40;;;;;;;-1.80;72.36;96851.44;1785196;80;21519;-74
2021/01/31 00:37:50;;;;;;;43.30;18.97;;;;;;;-1.82;72.35;96856.98;1785431;80;21039;-74
2021/01/31 00:40:16;;;;;;;43.35;19.23;;;;;;;-1.77;72.56;96854.45;1785267;79;21114;-74
2021/01/31 00:42:45;;;;;;;44.70;20.57;;;;;;;-1.76;72.38;96855.27;1785262;80;22130;-74
2021/01/31 00:45:17;;;;;;;43.85;19.32;;;;;;;-1.77;72.37;96856.31;1784638;79;21564;-74
2021/01/31 00:47:43;;;;;;;45.40;17.23;;;;;;;-1.76;72.11;96856.59;1785176;80;21123;-74
2021/01/31 00:50:18;;;;;;;44.20;19.25;;;;;;;-1.79;72.28;96858.39;1785157;79;21039;-74
2021/01/31 00:52:44;;;;;;;41.02;18.25;;;;;;;-1.73;72.59;96855.60;1785197;80;21056;-74
2021/01/31 00:55:11;;;;;;;54.13;23.65;;;;;;;-1.68;72.53;96856.25;1785137;79;21436;-74
2021/01/31 00:57:37;;;;;;;42.55;19.37;;;;;;;-1.64;72.78;96849.43;1785113;80;21040;-74
2021/01/31 01:00:22;;;;;;;56.80;24.72;;;;;;;-1.54;72.91;96855.49;1785265;79;21079;-74
2021/01/31 01:02:48;;;;;;;42.88;21.15;;;;;;;-1.48;72.78;96854.58;1785278;80;21055;-74
2021/01/31 01:05:15;;;;;;;45.75;20.10;;;;;;;-1.43;72.80;96852.86;1785203;79;21098;-74
2021/01/31 01:07:43;;;;;;;40.85;19.65;;;;;;;-1.45;72.24;96852.28;1785159;80;21230;-74
2021/01/31 01:10:11;;;;;;;37.42;19.37;;;;;;;-1.57;72.33;96846.66;1785070;79;21047;-74
2021/01/31 01:12:37;;;;;;;49.40;21.52;;;;;;;-1.69;72.43;96849.33;1785238;80;21460;-74
2021/01/31 01:15:07;;;;;;;41.98;18.85;;;;;;;-1.67;72.91;96848.57;1785099;79;21083;-74
2021/01/31 01:17:33;;;;;;;45.03;18.02;;;;;;;-1.61;72.92;96845.00;1789544;79;21079;-74
2021/01/31 01:19:59;;;;;;;31.15;14.40;;;;;;;-1.57;73.09;96840.02;1799722;78;21203;-74
2021/01/31 01:22:26;;;;;;;37.35;15.45;;;;;;;-1.52;73.12;96845.47;1799623;79;21019;-74
2021/01/31 01:24:52;;;;;;;38.53;17.50;;;;;;;-1.54;72.98;96839.55;1799664;78;21105;-74
2021/01/31 01:27:22;;;;;;;38.15;16.97;;;;;;;-1.61;72.96;96837.55;1799646;79;21125;-74
2021/01/31 01:29:48;;;;;;;41.18;19.60;;;;;;;-1.58;73.20;96839.22;1799669;78;21388;-74
2021/01/31 01:32:15;;;;;;;46.60;19.20;;;;;;;-1.64;72.56;96837.48;1799662;79;21271;-74
2021/01/31 01:34:44;;;;;;;44.95;19.20;;;;;;;-1.75;72.24;96830.32;1799661;78;21486;-74
2021/01/31 01:37:11;;;;;;;45.38;20.85;;;;;;;-1.81;72.51;96825.92;1799771;79;21106;-74
2021/01/31 01:39:37;;;;;;;43.15;20.05;;;;;;;-1.81;72.73;96830.70;1799750;78;21479;-74
2021/01/31 01:42:08;;;;;;;41.92;19.80;;;;;;;-1.88;72.74;96831.85;1799807;79;21113;-74
2021/01/31 01:44:35;;;;;;;47.13;22.67;;;;;;;-1.89;72.87;96828.39;1799695;78;21269;-74
2021/01/31 01:47:02;;;;;;;47.43;20.17;;;;;;;-1.83;73.03;96834.12;1799603;79;21105;-74
2021/01/31 01:49:36;;;;;;;47.23;20.85;;;;;;;-1.84;72.95;96835.16;1799712;78;21038;-74
2021/01/31 01:52:25;;;;;;;44.77;19.77;;;;;;;-1.82;73.01;96837.06;1798720;79;21121;-74
2021/01/31 01:54:55;;;;;;;47.23;18.85;;;;;;;-1.86;72.86;96831.94;1799668;78;21103;-74
2021/01/31 01:57:29;;;;;;;51.92;20.50;;;;;;;-1.92;73.47;96840.00;1799704;79;22074;-74
2021/01/31 01:59:55;;;;;;;45.98;20.77;;;;;;;-1.89;73.38;96838.20;1799714;78;21106;-74
2021/01/31 02:02:32;;;;;;;52.38;23.85;;;;;;;-1.84;73.37;96838.34;1799700;79;21494;-74
2021/01/31 02:05:02;;;;;;;48.75;20.75;;;;;;;-1.77;73.36;96844.36;1799732;78;21078;-75
2021/01/31 02:07:29;;;;;;;42.20;19.85;;;;;;;-1.76;73.33;96842.79;1799680;79;21054;-75
2021/01/31 02:09:55;;;;;;;52.67;21.62;;;;;;;-1.71;73.40;96846.91;1780792;79;21519;-75
2021/01/31 02:12:24;;;;;;;46.28;20.25;;;;;;;-1.63;73.48;96850.23;1780629;80;21138;-75
2021/01/31 02:14:51;;;;;;;54.95;24.12;;;;;;;-1.59;73.19;96850.89;1780653;79;21126;-75
2021/01/31 02:17:28;;;;;;;50.55;20.20;;;;;;;-1.62;73.11;96854.02;1780422;78;21079;-75
2021/01/31 02:20:22;;;;;;;49.42;19.87;;;;;;;-1.66;73.12;96850.70;1777996;79;21103;-74
2021/01/31 02:23:16;;;;;;;52.88;22.45;;;;;;;-1.70;73.13;96855.69;1778056;80;21133;-74
2021/01/31 02:26:24;;;;;;;47.78;21.10;;;;;;;-1.80;73.18;96860.20;1777913;80;21091;-74
2021/01/31 02:29:13;;;;;;;44.13;19.92;;;;;;;-1.88;73.59;96858.41;1776809;79;21130;-75
2021/01/31 02:31:57;;;;;;;58.95;27.02;;;;;;;-1.91;73.63;96868.17;1778284;80;21094;-75
2021/01/31 02:34:34;;;;;;;53.87;23.62;;;;;;;-1.94;73.57;96866.78;1778187;79;21094;-74
2021/01/31 02:37:21;;;;;;;51.40;22.55;;;;;;;-1.94;73.74;96869.44;1778010;80;22059;-76
2021/01/31 02:40:08;;;;;;;62.33;29.25;;;;;;;-1.92;73.70;96859.39;1777296;79;21051;-74
2021/01/31 02:42:48;;;;;;;57.73;23.95;;;;;;;-2.00;73.87;96866.36;1778120;80;21079;-74
2021/01/31 02:45:35;;;;;;;52.55;25.43;;;;;;;-2.06;73.96;96865.94;1778134;79;21630;-74
2021/01/31 02:48:12;;;;;;;69.42;40.78;;;;;;;-2.12;74.06;96867.67;1733310;79;21086;-75
2021/01/31 02:50:48;;;;;;;52.50;25.35;;;;;;;-2.19;74.37;96868.80;1778156;80;22172;-74
2021/01/31 02:53:20;;;;;;;53.02;26.27;;;;;;;-2.35;74.31;96869.73;1777932;79;21277;-75
2021/01/31 02:55:51;;;;;;;53.40;25.45;;;;;;;-2.37;74.27;96874.98;1777111;80;21039;-75
2021/01/31 02:58:26;;;;;;;52.75;23.98;;;;;;;-2.43;74.07;96873.21;1778075;79;21211;-75
2021/01/31 03:01:11;;;;;;;52.23;24.47;;;;;;;-2.42;74.33;96880.94;1754094;80;21480;-74
2021/01/31 03:03:51;;;;;;;52.23;23.32;;;;;;;-2.44;74.31;96882.21;1778163;79;21099;-74
2021/01/31 03:06:21;;;;;;;53.63;23.12;;;;;;;-2.41;74.52;96893.17;1759062;81;21100;-74
2021/01/31 03:08:56;;;;;;;49.85;22.50;;;;;;;-2.45;74.52;96891.20;1759829;81;21450;-75
2021/01/31 03:11:43;;;;;;;52.95;21.97;;;;;;;-2.45;74.71;96898.65;1759922;81;21517;-75
2021/01/31 03:14:17;;;;;;;55.75;23.62;;;;;;;-2.39;74.70;96899.61;1759932;81;21013;-74
2021/01/31 03:16:51;;;;;;;52.30;22.90;;;;;;;-2.37;74.49;96897.02;1759613;81;21198;-75
2021/01/31 03:19:39;;;;;;;51.30;22.85;;;;;;;-2.35;74.21;96901.56;1759688;81;21481;-75
2021/01/31 03:22:09;;;;;;;;;;;;;;;-2.37;74.37;96906.30;1762443;81;21100;-74
2021/01/31 03:24:43;;;;;;;82.45;29.80;;;;;;;-2.32;74.20;96902.95;1757857;81;20252;-74
2021/01/31 03:27:23;;;;;;;85.72;33.58;;;;;;;-2.32;74.23;96899.78;1778079;80;21078;-74
2021/01/31 03:29:49;;;;;;;66.57;27.20;;;;;;;-2.32;74.12;96902.95;1778067;79;22117;-74
2021/01/31 03:32:29;;;;;;;66.80;27.42;;;;;;;-2.30;74.20;96912.33;1778123;80;21131;-74
2021/01/31 03:34:59;;;;;;;74.60;28.17;;;;;;;-2.28;74.12;96907.60;1777807;79;21110;-74
2021/01/31 03:37:32;;;;;;;55.10;20.82;;;;;;;-2.27;74.09;96913.20;1778130;80;21103;-75
2021/01/31 03:39:58;;;;;;;48.68;20.05;;;;;;;-2.25;74.02;96910.83;1753901;80;21071;-75
2021/01/31 03:42:24;;;;;;;49.73;21.23;;;;;;;-2.25;73.96;96910.31;1778179;80;21186;-75
2021/01/31 03:44:51;;;;;;;53.75;23.22;;;;;;;-2.28;73.86;96907.60;1777959;79;21154;-75
2021/01/31 03:47:35;;;;;;;45.55;21.30;;;;;;;-2.29;73.86;96907.83;1778145;80;21070;-75
2021/01/31 03:50:01;;;;;;;85.67;36.53;;;;;;;-2.30;73.91;96911.52;1778113;79;21079;-74
2021/01/31 03:52:28;;;;;;;62.30;24.47;;;;;;;-2.34;73.75;96911.66;1778170;80;21122;-74
2021/01/31 03:54:54;;;;;;;46.28;21.85;;;;;;;-2.38;73.86;96910.50;1778099;79;22100;-74
2021/01/31 03:57:31;;;;;;;49.13;22.00;;;;;;;-2.43;73.91;96914.34;1777964;80;21528;-74
2021/01/31 04:00:19;;;;;;;54.05;20.75;;;;;;;-2.45;73.97;96917.22;1771461;79;21095;-74
2021/01/31 04:03:13;;;;;;;44.20;18.90;;;;;;;-2.54;74.21;96919.89;1778336;80;21459;-74
2021/01/31 04:05:56;;;;;;;55.17;25.00;;;;;;;-2.62;73.90;96929.47;1778120;80;21095;-75
2021/01/31 04:08:22;;;;;;;44.45;18.92;;;;;;;-2.69;74.36;96926.89;1778038;79;21980;-74
2021/01/31 04:10:48;;;;;;;40.92;19.12;;;;;;;-2.73;73.37;96926.25;1778078;80;21150;-74
2021/01/31 04:13:14;;;;;;;45.95;20.23;;;;;;;-2.81;74.24;96935.30;1778012;79;21613;-74
2021/01/31 04:15:50;;;;;;;41.50;19.85;;;;;;;-2.75;74.05;96943.68;1778011;80;21446;-74
2021/01/31 04:18:17;;;;;;;38.98;19.87;;;;;;;-2.75;74.19;96942.35;1779410;79;21991;-75
2021/01/31 04:20:43;;;;;;;46.90;19.05;;;;;;;-2.77;73.93;96940.96;1785324;80;21148;-75
2021/01/31 04:23:10;;;;;;;40.30;19.37;;;;;;;-2.77;74.03;96938.31;1785073;79;21118;-75
2021/01/31 04:25:36;;;;;;;42.73;19.98;;;;;;;-2.79;73.88;96939.86;1785223;80;21078;-75
2021/01/31 04:28:11;;;;;;;46.42;22.60;;;;;;;-2.76;74.19;96945.23;1785150;79;21130;-75
2021/01/31 04:30:40;;;;;;;48.80;21.17;;;;;;;-2.75;74.32;96946.84;1785276;80;21479;-75
2021/01/31 04:33:07;;;;;;;49.90;21.85;;;;;;;-2.75;74.32;96947.66;1784287;79;21411;-74
2021/01/31 04:35:33;;;;;;;53.92;24.52;;;;;;;-2.68;74.42;96951.56;1785129;80;21150;-75
2021/01/31 04:38:00;;;;;;;52.17;25.60;;;;;;;-2.64;74.38;96944.80;1785181;79;21154;-75
2021/01/31 04:40:26;;;;;;;58.55;24.98;;;;;;;-2.69;74.25;96952.09;1785160;80;21119;-75
2021/01/31 04:42:52;;;;;;;52.62;24.95;;;;;;;-2.74;74.34;96955.09;1785242;80;21062;-75
2021/01/31 04:45:19;;;;;;;63.52;23.85;;;;;;;-2.80;74.41;96958.66;1785151;79;21966;-75
2021/01/31 04:51:11;;;;;;;73.65;28.87;;;;;;;-2.90;74.72;96959.16;1890236;76;22633;-75
2021/01/31 04:54:05;;;;;;;49.42;21.55;;;;;;;-3.00;74.71;96966.27;1850967;77;21034;-74
2021/01/31 04:56:45;;;;;;;59.50;26.65;;;;;;;-2.99;74.79;96967.92;1782972;80;22021;-74
2021/01/31 04:59:33;;;;;;;63.52;28.35;;;;;;;-2.98;75.15;96964.23;1747534;82;21063;-74
2021/01/31 05:02:14;;;;;;;55.38;22.27;;;;;;;-2.90;75.06;96970.58;1773624;81;20952;-74
2021/01/31 05:04:57;;;;;;;53.40;26.17;;;;;;;-3.01;75.11;96975.77;1774002;81;20897;-75
2021/01/31 05:07:34;;;;;;;51.08;22.22;;;;;;;-3.19;76.36;96982.66;1774061;81;21511;-74
2021/01/31 05:10:00;;;;;;;65.22;25.85;;;;;;;-3.15;75.75;96989.16;1774074;80;22086;-74
2021/01/31 05:12:41;;;;;;;55.50;21.95;;;;;;;-3.05;75.57;96988.66;1774071;80;20984;-74
2021/01/31 05:15:30;;;;;;;50.33;22.70;;;;;;;-3.06;75.31;96979.09;1773974;81;21154;-74
2021/01/31 05:17:58;;;;;;;56.60;26.48;;;;;;;-3.13;75.36;96978.34;1774138;80;21128;-75
2021/01/31 05:20:30;;;;;;;39.75;19.55;;;;;;;-3.06;75.65;96983.59;1774202;81;21091;-75
2021/01/31 05:22:58;;;;;;;62.70;29.05;;;;;;;-3.07;75.41;96974.83;1774094;79;21988;-74
2021/01/31 05:25:35;;;;;;;50.52;25.68;;;;;;;-3.05;75.61;96982.04;1774042;79;21503;-74
2021/01/31 05:28:03;;;;;;;92.45;45.55;;;;;;;-2.96;76.36;96979.40;1774085;80;21087;-74
2021/01/31 05:30:30;;;;;;;56.02;24.32;;;;;;;-3.01;75.77;96991.67;1773954;81;21052;-73
2021/01/31 05:33:10;;;;;;;44.13;26.20;;;;;;;-3.07;75.48;96992.05;1773999;80;21095;-74
2021/01/31 05:35:50;;;;;;;40.67;18.98;;;;;;;-3.16;75.35;96999.98;1774011;81;21188;-75
2021/01/31 05:38:37;;;;;;;69.40;36.03;;;;;;;-3.29;75.03;97000.09;1774024;80;21588;-75
2021/01/31 05:41:29;;;;;;;74.32;40.90;;;;;;;-3.44;75.10;97004.38;1774007;80;21074;-74
2021/01/31 05:44:05;;;;;;;67.05;32.13;;;;;;;-3.66;74.47;97010.55;1773988;79;21138;-74
2021/01/31 05:46:39;;;;;;;53.65;30.05;;;;;;;-3.61;74.58;97017.84;1764601;81;21444;-75
2021/01/31 05:49:09;;;;;;;91.50;47.50;;;;;;;-3.57;74.49;97018.53;1773942;80;22069;-74
2021/01/31 05:51:36;;;;;;;115.72;62.62;;;;;;;-3.66;73.97;97025.62;1774075;81;20988;-74
2021/01/31 05:54:38;;;;;;;48.20;26.25;;;;;;;-3.75;74.10;97031.69;1773906;80;21099;-75
2021/01/31 05:57:08;;;;;;;32.85;16.48;;;;;;;-3.66;74.16;97036.22;1675847;85;21120;-74
2021/01/31 05:59:42;;;;;;;28.17;11.57;;;;;;;-3.77;74.37;97043.80;1672338;85;21136;-74
2021/01/31 06:02:08;;;;;;;29.30;19.02;;;;;;;-3.76;74.18;97048.58;1727210;81;21389;-73
2021/01/31 06:04:34;;;;;;;38.53;18.07;;;;;;;-3.81;74.10;97053.20;1773329;80;21106;-73
2021/01/31 06:07:09;;;;;;;26.15;14.58;;;;;;;-3.90;73.65;97053.14;1773413;80;21150;-74
2021/01/31 06:09:45;;;;;;;24.45;12.23;;;;;;;-4.00;73.76;97051.47;1773371;80;21491;-74
2021/01/31 06:12:23;;;;;;;24.52;11.88;;;;;;;-4.05;72.80;97048.63;1773457;81;21080;-74
2021/01/31 06:15:16;;;;;;;28.55;15.18;;;;;;;-4.09;72.81;97052.22;1773368;80;21263;-74
2021/01/31 06:17:42;;;;;;;30.80;13.05;;;;;;;-4.10;72.90;97051.08;1773482;81;21563;-75
2021/01/31 06:20:14;;;;;;;28.00;11.78;;;;;;;-4.06;73.66;97060.24;1773348;80;21052;-74
2021/01/31 06:22:49;;;;;;;29.18;15.68;;;;;;;-4.06;72.75;97066.34;1773429;81;21064;-74
2021/01/31 06:25:30;;;;;;;26.27;14.07;;;;;;;-4.03;73.23;97067.75;1773460;80;21091;-73
2021/01/31 06:28:14;;;;;;;29.12;14.65;;;;;;;-4.02;73.58;97068.86;1773498;81;21282;-74
2021/01/31 06:31:12;;;;;;;30.55;13.32;;;;;;;-3.98;73.70;97070.08;1773345;80;21051;-75
2021/01/31 06:33:39;;;;;;;24.90;11.28;;;;;;;-3.93;73.79;97066.81;1731408;80;21087;-75
2021/01/31 06:36:16;;;;;;;25.25;11.38;;;;;;;-3.88;73.73;97076.75;1773417;80;21130;-75
2021/01/31 06:38:57;;;;;;;27.13;12.82;;;;;;;-3.82;73.97;97082.53;1772670;80;21012;-74
2021/01/31 06:41:47;;;;;;;34.40;20.57;;;;;;;-3.69;74.17;97079.80;1773507;81;21268;-74
2021/01/31 06:44:42;;;;;;;68.70;38.65;;;;;;;-3.62;73.82;97081.91;1771387;80;21139;-73
2021/01/31 06:47:30;;;;;;;40.38;19.42;;;;;;;-3.64;72.85;97080.51;1773400;81;21111;-74
2021/01/31 06:50:20;;;;;;;40.83;21.77;;;;;;;-3.71;72.17;97084.51;1772437;80;21122;-74
2021/01/31 06:53:23;;;;;;;37.25;18.27;;;;;;;-3.76;72.50;97085.64;1782011;79;21098;-74
2021/01/31 06:56:36;;;;;;;33.50;17.50;;;;;;;-3.74;72.91;97089.72;1781482;80;21340;-74
2021/01/31 06:59:33;;;;;;;30.57;15.60;;;;;;;-3.72;72.99;97092.97;1781790;80;21568;-75
2021/01/31 07:02:28;;;;;;;24.30;12.98;;;;;;;-3.56;73.43;97101.45;1781911;80;20945;-75
2021/01/31 07:05:19;;;;;;;24.87;11.38;;;;;;;-3.48;73.28;97099.36;1781864;79;21129;-75
2021/01/31 07:08:24;;;;;;;24.43;11.88;;;;;;;-3.43;73.24;97098.70;1781944;80;21059;-74
2021/01/31 07:11:16;;;;;;;20.25;10.13;;;;;;;-3.34;73.37;97101.39;1781867;80;21861;-74
2021/01/31 07:14:20;;;;;;;24.43;13.25;;;;;;;-3.24;73.18;97104.92;1781531;80;21538;-74
2021/01/31 07:17:02;;;;;;;25.75;13.62;;;;;;;-3.19;73.22;97104.56;1781929;80;21103;-74
2021/01/31 07:19:42;;;;;;;29.00;12.50;;;;;;;-3.17;72.84;97107.80;1781865;80;21052;-74
2021/01/31 07:22:15;;;;;;;33.50;14.78;;;;;;;-3.18;72.43;97102.20;1778121;80;21015;-74
2021/01/31 07:24:49;;;;;;;45.12;21.95;;;;;;;-3.22;72.28;97105.52;1781858;80;21254;-74
2021/01/31 07:27:50;;;;;;;49.50;20.00;;;;;;;-3.24;72.39;97112.36;1781825;80;21508;-74
2021/01/31 07:30:38;;;;;;;36.05;17.73;;;;;;;-3.30;72.17;97115.05;1781834;80;21163;-75
2021/01/31 07:33:26;;;;;;;58.68;26.50;;;;;;;-3.26;72.50;97122.85;1781952;79;21504;-75
2021/01/31 07:36:23;;;;;;;49.83;21.30;;;;;;;-3.37;70.33;97121.70;1782173;79;21036;-74
2021/01/31 07:39:04;;;;;;;88.95;39.30;;;;;;;-3.39;71.48;97122.44;1781642;80;21441;-75
2021/01/31 07:41:30;;;;;;;57.50;25.97;;;;;;;-3.45;70.95;97126.73;1781827;80;21078;-74
2021/01/31 07:44:06;;;;;;;51.92;20.82;;;;;;;-3.25;72.12;97121.31;1781848;80;21111;-75
2021/01/31 07:46:32;;;;;;;50.75;22.52;;;;;;;-3.11;71.62;97116.75;1751273;80;21110;-75
2021/01/31 07:49:00;;;;;;;59.03;24.90;;;;;;;-3.06;70.97;97118.77;1781809;80;21115;-75
2021/01/31 07:51:38;;;;;;;67.30;31.17;;;;;;;-3.20;70.30;97124.66;1781951;79;21118;-75
2021/01/31 07:54:31;;;;;;;57.07;29.43;;;;;;;-3.07;71.32;97122.45;1781992;80;21131;-75
2021/01/31 07:57:20;;;;;;;50.78;23.77;;;;;;;-2.89;71.84;97119.34;1752489;80;21491;-75
2021/01/31 07:59:46;;;;;;;40.48;19.30;;;;;;;-2.70;71.75;97124.18;1765882;80;21123;-75
2021/01/31 08:02:12;;;;;;;44.03;19.73;;;;;;;-2.52;71.79;97120.76;1781884;80;21122;-75
2021/01/31 08:04:44;;;;;;;37.55;18.85;;;;;;;-2.36;71.68;97123.37;1769085;80;21427;-75
2021/01/31 08:07:10;;;;;;;28.60;13.18;;;;;;;-2.28;71.21;97127.87;1781793;80;21077;-75
2021/01/31 08:09:42;;;;;;;38.48;15.88;;;;;;;-2.21;70.01;97121.70;1781808;79;20921;-75
2021/01/31 08:12:13;;;;;;;32.98;13.95;;;;;;;-2.18;70.73;97120.73;1781883;80;21087;-75
2021/01/31 08:15:06;;;;;;;38.90;17.35;;;;;;;-2.12;70.60;97120.37;1781829;80;21039;-74
2021/01/31 08:17:57;;;;;;;38.13;17.07;;;;;;;-2.01;70.51;97123.61;1685133;83;22178;-75
2021/01/31 08:20:32;;;;;;;38.92;16.57;;;;;;;-1.91;69.63;97127.07;1772023;80;20984;-74
2021/01/31 08:23:12;;;;;;;43.35;18.30;;;;;;;-1.83;68.96;97130.23;1781802;80;21087;-75
2021/01/31 08:26:00;;;;;;;35.45;16.87;;;;;;;-1.74;69.65;97136.06;1781863;80;21424;-74
2021/01/31 08:28:33;;;;;;;32.40;14.68;;;;;;;-1.91;68.95;97137.69;1782011;80;21405;-74
2021/01/31 08:31:16;;;;;;;25.65;12.03;;;;;;;-1.88;69.22;97137.23;1781522;80;21987;-74
2021/01/31 08:33:44;;;;;;;25.52;11.50;;;;;;;-1.90;68.95;97137.98;1781904;79;21400;-75
2021/01/31 08:36:21;;;;;;;29.65;15.00;;;;;;;-1.93;68.99;97131.80;1782054;79;21051;-75
2021/01/31 08:38:51;;;;;;;37.98;17.20;;;;;;;-2.08;68.60;97130.83;1781890;80;21039;-75
2021/01/31 08:41:33;;;;;;;96.45;42.27;;;;;;;-2.07;68.59;97133.26;1781870;80;21099;-75
2021/01/31 08:44:14;;;;;;;66.47;29.65;;;;;;;-2.00;68.81;97133.20;1781829;79;21201;-75
2021/01/31 08:47:01;;;;;;;84.97;40.58;;;;;;;-2.05;68.50;97134.36;1780666;80;21075;-75
2021/01/31 08:49:28;;;;;;;74.00;31.02;;;;;;;-2.23;68.22;97130.38;1781675;79;21055;-74
2021/01/31 08:52:03;;;;;;;50.70;24.45;;;;;;;-2.13;68.33;97130.18;1781825;80;21107;-76
2021/01/31 08:54:29;;;;;;;41.40;19.55;;;;;;;-1.91;68.56;97125.74;1781803;79;21012;-74
2021/01/31 08:56:59;;;;;;;41.33;20.85;;;;;;;-1.99;68.31;97124.19;1781805;80;21273;-75
2021/01/31 08:59:40;;;;;;;47.80;21.07;;;;;;;-2.22;68.18;97125.35;1781702;80;20972;-75
2021/01/31 09:02:18;;;;;;;61.73;29.98;;;;;;;-2.42;68.26;97122.39;1751351;80;21130;-74
2021/01/31 09:04:52;;;;;;;100.18;45.65;;;;;;;-2.40;69.11;97131.45;1781778;80;21189;-74
2021/01/31 09:07:23;;;;;;;120.35;50.73;;;;;;;-2.30;69.39;97127.29;1781934;79;21490;-75
2021/01/31 09:09:53;;;;;;;120.02;52.53;;;;;;;-2.17;69.70;97129.50;1781518;80;21396;-75
2021/01/31 09:12:21;;;;;;;98.07;43.75;;;;;;;-2.07;69.02;97126.63;1781801;79;21079;-75
2021/01/31 09:14:47;;;;;;;83.55;37.80;;;;;;;-2.01;69.11;97124.42;1781778;79;21150;-75
2021/01/31 09:17:25;;;;;;;72.65;32.55;;;;;;;-1.83;69.29;97125.45;1781819;79;21182;-75
2021/01/31 09:20:13;;;;;;;62.30;29.45;;;;;;;-1.66;68.84;97126.46;1781804;80;21157;-74
2021/01/31 09:22:43;;;;;;;42.88;22.93;;;;;;;-1.55;68.88;97114.27;1781975;80;22088;-76
2021/01/31 09:25:11;;;;;;;47.43;19.62;;;;;;;-1.45;68.35;97123.86;1781762;79;21083;-75
2021/01/31 09:27:48;;;;;;;51.80;25.60;;;;;;;-1.52;64.43;97133.76;1781792;79;21062;-75
2021/01/31 09:30:17;;;;;;;54.35;23.73;;;;;;;-1.47;66.42;97125.91;1779184;80;21103;-76
2021/01/31 09:32:50;;;;;;;46.25;21.07;;;;;;;-1.51;67.07;97130.88;1781997;80;21091;-75
2021/01/31 09:35:24;;;;;;;35.73;16.20;;;;;;;-1.62;65.47;97128.14;1781855;80;21203;-74
2021/01/31 09:37:50;;;;;;;27.27;13.75;;;;;;;-1.81;62.71;97128.16;1781942;79;21072;-75
2021/01/31 09:40:16;;;;;;;28.87;12.95;;;;;;;-1.69;65.56;97128.25;1751555;80;21110;-75
2021/01/31 09:42:42;;;;;;;27.60;11.08;;;;;;;-1.73;66.06;97130.52;1702854;80;21157;-75
2021/01/31 09:45:40;;;;;;;25.50;11.20;;;;;;;-1.90;66.30;97124.19;1781910;80;21011;-75
2021/01/31 09:48:09;;;;;;;28.07;13.60;;;;;;;-2.03;66.47;97121.70;1782284;79;21523;-75
2021/01/31 09:50:35;;;;;;;;;;;;;;;-2.22;62.89;97126.68;1781473;80;21472;-75
2021/01/31 09:53:02;;;;;;;21.73;12.13;;;;;;;-2.16;64.10;97128.47;1773394;80;20270;-75
2021/01/31 09:55:34;;;;;;;25.68;11.57;;;;;;;-2.09;62.58;97129.21;1773375;80;21077;-75
2021/01/31 09:58:00;;;;;;;26.80;11.68;;;;;;;-1.91;64.68;97129.73;1773424;81;21063;-75
2021/01/31 10:00:30;;;;;;;29.55;13.58;;;;;;;-1.85;62.54;97132.31;1773409;80;21865;-75
2021/01/31 10:03:04;;;;;;;57.23;22.15;;;;;;;-1.74;64.76;97133.41;1773343;80;21500;-75
2021/01/31 10:05:30;;;;;;;31.57;15.70;;;;;;;-1.48;65.68;97135.73;1773379;81;21064;-74
2021/01/31 10:08:09;;;;;;;41.55;19.98;;;;;;;-1.30;65.15;97134.06;1773403;80;21115;-74
2021/01/31 10:10:39;;;;;;;;;;;;;;;-1.17;65.67;97137.36;1775837;80;21103;-76
2021/01/31 10:13:33;;;;;;;23.45;11.55;;;;;;;-1.05;63.06;97134.73;1773409;81;21198;-75
2021/01/31 10:16:05;;;;;;;23.10;10.58;;;;;;;-1.29;59.10;97136.49;1773435;81;21420;-75
2021/01/31 10:18:37;;;;;;;22.60;10.60;;;;;;;-1.29;59.44;97135.69;1771339;80;21444;-76
2021/01/31 10:21:30;;;;;;;24.30;11.30;;;;;;;-1.15;62.15;97135.28;1773373;81;21543;-75
2021/01/31 10:24:07;;;;;;;24.43;12.13;;;;;;;-0.96;63.02;97135.22;1773414;80;21083;-74
2021/01/31 10:26:33;;;;;;;24.60;12.20;;;;;;;-0.90;59.40;97132.46;1768730;81;21209;-75
2021/01/31 10:29:03;;;;;;;24.07;12.10;;;;;;;-0.67;62.67;97127.71;1773371;80;21102;-76
2021/01/31 10:31:36;;;;;;;27.70;13.15;;;;;;;-0.67;57.98;97126.90;1773498;81;21420;-76
2021/01/31 10:34:05;;;;;;;31.57;13.83;;;;;;;-0.58;61.07;97128.98;1773373;81;21122;-75
2021/01/31 10:36:40;;;;;;;24.05;12.75;;;;;;;-0.61;58.57;97129.95;1773510;81;21036;-75
2021/01/31 10:39:15;;;;;;;27.58;12.15;;;;;;;-0.42;60.79;97118.70;1773295;81;23476;-74
2021/01/31 10:41:44;;;;;;;25.23;12.78;;;;;;;-0.39;59.43;97125.70;1773304;80;21126;-74
2021/01/31 10:44:15;;;;;;;30.65;13.18;;;;;;;-0.28;59.66;97118.74;1773568;80;21051;-74
2021/01/31 10:46:41;;;;;;;26.93;13.03;;;;;;;-0.21;60.54;97119.96;1771467;81;21048;-75
2021/01/31 10:49:08;;;;;;;31.12;15.85;;;;;;;-0.26;57.93;97120.64;1773312;80;21019;-75
2021/01/31 10:51:34;;;;;;;30.65;17.23;;;;;;;-0.41;58.37;97113.14;1778426;80;21084;-75
2021/01/31 10:54:03;;;;;;;23.42;13.88;;;;;;;-0.58;58.70;97113.55;1781887;80;21039;-75
2021/01/31 10:56:29;;;;;;;28.40;15.03;;;;;;;-0.35;60.58;97113.53;1782003;80;21449;-75
2021/01/31 10:58:56;;;;;;;29.25;12.75;;;;;;;-0.20;61.64;97115.73;1781893;79;21118;-75
2021/01/31 11:01:23;;;;;;;32.33;15.38;;;;;;;-0.33;59.67;97118.13;1781856;80;21111;-75
2021/01/31 11:03:49;;;;;;;36.77;18.30;;;;;;;-0.39;59.44;97111.05;1781961;80;21206;-75
2021/01/31 11:06:17;;;;;;;28.67;13.32;;;;;;;-0.40;60.06;97115.28;1781807;80;21536;-75
2021/01/31 11:08:43;;;;;;;27.13;13.80;;;;;;;-0.53;58.28;97112.31;1781872;80;21098;-75
2021/01/31 11:11:09;;;;;;;26.02;13.78;;;;;;;-0.43;57.83;97113.88;1781824;79;21498;-75
2021/01/31 11:13:35;;;;;;;23.27;12.43;;;;;;;-0.35;59.40;97116.19;1781994;80;21134;-75
2021/01/31 11:16:03;;;;;;;23.15;14.20;;;;;;;-0.42;57.10;97106.73;1781934;80;22156;-75
2021/01/31 11:18:30;;;;;;;23.15;11.90;;;;;;;-0.26;59.84;97115.84;1781784;80;21059;-76
2021/01/31 11:20:56;;;;;;;23.42;12.13;;;;;;;-0.14;58.56;97109.48;1781903;80;21484;-75
2021/01/31 11:23:22;;;;;;;23.30;12.43;;;;;;;0.03;60.17;97108.24;1781884;79;21035;-75
2021/01/31 11:25:49;;;;;;;25.23;13.50;;;;;;;-0.10;58.46;97107.95;1781883;80;21404;-75
2021/01/31 11:28:17;;;;;;;21.90;11.20;;;;;;;-0.12;56.26;97107.39;1781843;80;21242;-75
2021/01/31 11:30:43;;;;;;;28.10;12.90;;;;;;;-0.05;58.31;97112.07;1782087;80;21130;-75
2021/01/31 11:33:10;;;;;;;25.48;13.10;;;;;;;0.11;59.71;97108.41;1781834;80;21091;-75
2021/01/31 11:35:36;;;;;;;26.30;13.53;;;;;;;-0.02;55.28;97104.94;1781858;80;21162;-75
2021/01/31 11:38:02;;;;;;;32.73;14.28;;;;;;;0.09;57.47;97103.84;1781948;80;21550;-77
2021/01/31 11:40:28;;;;;;;26.77;13.20;;;;;;;0.22;59.85;97097.70;1781805;80;21211;-76
2021/01/31 11:42:55;;;;;;;27.15;12.45;;;;;;;0.13;57.56;97099.13;1781892;80;21479;-76
2021/01/31 11:45:23;;;;;;;25.95;12.90;;;;;;;0.12;58.86;97093.52;1781823;80;21147;-75
2021/01/31 11:47:49;;;;;;;27.75;12.00;;;;;;;0.12;59.11;97095.37;1781899;80;21119;-76
2021/01/31 11:50:17;;;;;;;26.62;12.82;;;;;;;0.01;56.88;97095.69;1781930;79;21828;-76
2021/01/31 11:52:43;;;;;;;25.43;12.68;;;;;;;-0.25;57.48;97098.33;1781776;80;21511;-76
2021/01/31 11:55:09;;;;;;;27.87;13.32;;;;;;;-0.22;58.94;97092.53;1781814;80;21058;-76